LOWI/INN METAR and TAF weather

Enter ICAO airport designator
Station Type Date Time Source
LOWI METAR 2019/08/22 04:20 UTC NOAA

LOWI 220420Z 17002KT 9999 SCT007 BKN020 BKN200 13/13 Q1025 TEMPO TL0600 BKN010


Station Type Date Time Source
LOWI Decoded METAR 2019/08/22 04:20 UTC NOAA

Station name not available
Aug 22, 2019 - 12:20 AM EDT / 2019.08.22 0420 UTC
Wind: from the S (170 degrees) at 2 MPH (2 KT):0
Visibility: greater than 7 mile(s):0
Sky conditions: mostly cloudy
Temperature: 55 F (13 C)
Dew Point: 55 F (13 C)
Relative Humidity: 100%
Pressure (altimeter): 30.27 in. Hg (1025 hPa)
ob: LOWI 220420Z 17002KT 9999 SCT007 BKN020 BKN200 13/13 Q1025 TEMPO TL0600 BKN010
cycle: 4

Station Type Date Time Source
LOWI TAF 2019/08/22 01:49 UTC NOAA

TAF
AMD LOWI 220139Z 2201/2224 28005KT 9999 FEW015 SCT030 BKN100 TX25/2214Z TN14/2204Z
TEMPO 2201/2206 8000 FEW004 BKN006
BECMG 2206/2208 09005KT FEW030 BKN300 PROB40
TEMPO 2214/2220 27015G25KT -TSRA FEW050CB SCT070

Example: see airport list